PWSweather.com
Personal Weather Stations
Station Observations
BEZINA
Slovenske KonjiceSI

Slovenske KonjiceSI

Lat: 46.358, Lon: 15.433

Elevation: 340

Station Type: Oregon WMR 200

http://www.slometeo.net/bezina/

Latest ConditionsUpdated 10:00:00 AM GMT+01:01 Friday, Feb 22, 2019
Currently Today's Max Today's Min Today's Average
Temperature 48.3°F9.1°C 49.0°F9.4°C 42.0°F5.6°C 45.6°F7.6°C
Dew Point 42.1°F5.6°C 42.1°F5.6°C 35.7°F2.1°C 38.1°F3.4°C
Winds 3.7 mph ENE6.0 kmh ENE 4.0 mph -6.4 kmh - - 1.4 mph 2.3 kmh
Wind Gusts 8.0 mph12.9 kmh 11.0 mph17.7 kmh - -
Humidity 79% 85% 61% 75%
Pressure 30.23 in1023.7 mb 30.26 in1024.7 mb 30.17 in1021.7 mb -
Precipitation - 0.01 in0.3 mm - -
Hour Temp Dew Point Humidity Winds Wind Gusts Pressure Precip Precip Rate Daily Precip Total
10:00 AM 48.3°F9.1°C 42.1°F5.6°C 79% 3.7 mph ENE6.0 kmh ENE 8.0 mph12.9 kmh 30.23 in1023.7 mb 0.00 in0.0 mm 0.00 in0.0 mm 0.01 in0.3 mm
09:45 AM 48.6°F9.2°C 40.3°F4.6°C 73% 3.2 mph NNE5.1 kmh NNE 7.0 mph11.3 kmh 30.23 in1023.7 mb 0.00 in0.0 mm 0.00 in0.0 mm 0.01 in0.3 mm
09:30 AM 48.5°F9.2°C 39.5°F4.2°C 71% 2.3 mph W3.7 kmh W 8.0 mph12.9 kmh 30.21 in1023.0 mb 0.00 in0.0 mm 0.00 in0.0 mm 0.01 in0.3 mm
09:15 AM 48.0°F8.9°C 40.8°F4.9°C 76% 1.0 mph N1.6 kmh N 4.0 mph6.4 kmh 30.21 in1023.0 mb 0.00 in0.0 mm 0.00 in0.0 mm 0.01 in0.3 mm
09:00 AM 47.8°F8.8°C 40.9°F4.9°C 77% 0.1 mph S0.2 kmh S 3.0 mph4.8 kmh 30.21 in1023.0 mb 0.01 in0.3 mm 0.00 in0.0 mm 0.01 in0.3 mm
08:45 AM 47.4°F8.6°C 40.6°F4.8°C 77% 1.5 mph SSW2.4 kmh SSW 4.0 mph6.4 kmh 30.21 in1023.0 mb 0.01 in0.3 mm 0.00 in0.0 mm 0.01 in0.3 mm
08:30 AM 47.6°F8.7°C 41.1°F5.1°C 78% 1.3 mph S2.1 kmh S 5.0 mph8.0 kmh 30.21 in1023.0 mb 0.01 in0.3 mm 0.00 in0.0 mm 0.01 in0.3 mm
08:15 AM 48.5°F9.2°C 40.6°F4.8°C 74% 2.7 mph NNW4.3 kmh NNW 6.0 mph9.7 kmh 30.21 in1023.0 mb 0.01 in0.3 mm 0.04 in1.0 mm 0.01 in0.3 mm
08:00 AM 49.0°F9.4°C 39.3°F4.1°C 69% 4.0 mph N6.4 kmh N 11.0 mph17.7 kmh 30.21 in1023.0 mb 0.00 in0.0 mm 0.00 in0.0 mm 0.00 in0.0 mm
07:45 AM 48.4°F9.1°C 36.4°F2.4°C 63% 2.3 mph N3.7 kmh N 7.0 mph11.3 kmh 30.20 in1022.7 mb 0.00 in0.0 mm 0.00 in0.0 mm 0.00 in0.0 mm
07:30 AM 46.5°F8.1°C 36.1°F2.3°C 67% 1.2 mph SW1.9 kmh SW 6.0 mph9.7 kmh 30.19 in1022.4 mb 0.00 in0.0 mm 0.00 in0.0 mm 0.00 in0.0 mm
07:15 AM 45.3°F7.4°C 37.2°F2.9°C 73% 1.0 mph E1.6 kmh E 3.0 mph4.8 kmh 30.18 in1022.0 mb 0.00 in0.0 mm 0.00 in0.0 mm 0.00 in0.0 mm
07:00 AM 46.1°F7.8°C 37.2°F2.9°C 71% 1.0 mph E1.6 kmh E 3.0 mph4.8 kmh 30.18 in1022.0 mb 0.00 in0.0 mm 0.00 in0.0 mm 0.00 in0.0 mm
06:45 AM 46.9°F8.3°C 36.5°F2.5°C 67% 1.0 mph S1.6 kmh S 3.0 mph4.8 kmh 30.18 in1022.0 mb 0.00 in0.0 mm 0.00 in0.0 mm 0.00 in0.0 mm
06:30 AM 48.0°F8.9°C 36.0°F2.2°C 63% 1.5 mph S2.4 kmh S 3.0 mph4.8 kmh 30.17 in1021.7 mb 0.00 in0.0 mm 0.00 in0.0 mm 0.00 in0.0 mm
06:15 AM 48.5°F9.2°C 35.7°F2.1°C 61% 2.0 mph SSW3.2 kmh SSW 4.0 mph6.4 kmh 30.17 in1021.7 mb 0.00 in0.0 mm 0.00 in0.0 mm 0.00 in0.0 mm
06:00 AM 48.5°F9.2°C 35.7°F2.1°C 61% 3.4 mph WSW5.5 kmh WSW 9.0 mph14.5 kmh 30.17 in1021.7 mb 0.00 in0.0 mm 0.00 in0.0 mm 0.00 in0.0 mm
05:45 AM 48.2°F9.0°C 36.2°F2.3°C 63% 3.0 mph SW4.8 kmh SW 8.0 mph12.9 kmh 30.18 in1022.0 mb 0.00 in0.0 mm 0.00 in0.0 mm 0.00 in0.0 mm
05:30 AM 47.7°F8.7°C 36.1°F2.3°C 64% 3.7 mph WSW6.0 kmh WSW 11.0 mph17.7 kmh 30.18 in1022.0 mb 0.00 in0.0 mm 0.00 in0.0 mm 0.00 in0.0 mm
05:15 AM 44.6°F7.0°C 36.1°F2.3°C 72% 1.4 mph SW2.3 kmh SW 5.0 mph8.0 kmh 30.18 in1022.0 mb 0.00 in0.0 mm 0.00 in0.0 mm 0.00 in0.0 mm
05:00 AM 43.9°F6.6°C 36.5°F2.5°C 75% 1.0 mph E1.6 kmh E 2.0 mph3.2 kmh 30.18 in1022.0 mb 0.00 in0.0 mm 0.00 in0.0 mm 0.00 in0.0 mm
04:45 AM 44.0°F6.7°C 36.2°F2.3°C 74% 1.0 mph E1.6 kmh E 3.0 mph4.8 kmh 30.18 in1022.0 mb 0.00 in0.0 mm 0.00 in0.0 mm 0.00 in0.0 mm
04:30 AM 45.1°F7.3°C 36.3°F2.4°C 71% 2.0 mph SE3.2 kmh SE 5.0 mph8.0 kmh 30.19 in1022.4 mb 0.00 in0.0 mm 0.00 in0.0 mm 0.00 in0.0 mm
04:15 AM 47.5°F8.6°C 36.7°F2.6°C 66% 1.4 mph SE2.3 kmh SE 3.0 mph4.8 kmh 30.19 in1022.4 mb 0.00 in0.0 mm 0.00 in0.0 mm 0.00 in0.0 mm
04:00 AM 46.1°F7.8°C 36.1°F2.3°C 68% 2.0 mph SW3.2 kmh SW 9.0 mph14.5 kmh 30.19 in1022.4 mb 0.00 in0.0 mm 0.00 in0.0 mm 0.00 in0.0 mm
03:45 AM 43.6°F6.4°C 37.2°F2.9°C 78% 1.2 mph S1.9 kmh S 5.0 mph8.0 kmh 30.20 in1022.7 mb 0.00 in0.0 mm 0.00 in0.0 mm 0.00 in0.0 mm
03:30 AM 42.2°F5.7°C 37.7°F3.2°C 84% 0.7 mph SE1.1 kmh SE 3.0 mph4.8 kmh 30.20 in1022.7 mb 0.00 in0.0 mm 0.00 in0.0 mm 0.00 in0.0 mm
03:15 AM 42.0°F5.6°C 37.8°F3.2°C 85% 0.8 mph ESE1.3 kmh ESE 2.0 mph3.2 kmh 30.21 in1023.0 mb 0.00 in0.0 mm 0.00 in0.0 mm 0.00 in0.0 mm
03:00 AM 42.0°F5.6°C 37.8°F3.2°C 85% Calm Calm 2.0 mph3.2 kmh 30.22 in1023.4 mb 0.00 in0.0 mm 0.00 in0.0 mm 0.00 in0.0 mm
02:45 AM 42.2°F5.7°C 37.7°F3.2°C 84% 0.4 mph 0.6 kmh -- 30.22 in1023.4 mb 0.00 in0.0 mm 0.00 in0.0 mm 0.00 in0.0 mm
02:30 AM 42.6°F5.9°C 38.1°F3.4°C 84% 0.1 mph ESE0.2 kmh ESE 3.0 mph4.8 kmh 30.23 in1023.7 mb 0.00 in0.0 mm 0.00 in0.0 mm 0.00 in0.0 mm
02:15 AM 42.6°F5.9°C 37.8°F3.2°C 83% Calm Calm 1.0 mph1.6 kmh 30.23 in1023.7 mb 0.00 in0.0 mm 0.00 in0.0 mm 0.00 in0.0 mm
02:00 AM 42.7°F5.9°C 37.9°F3.3°C 83% 1.0 mph E1.6 kmh E 2.0 mph3.2 kmh 30.24 in1024.0 mb 0.00 in0.0 mm 0.00 in0.0 mm 0.00 in0.0 mm
01:45 AM 43.7°F6.5°C 38.3°F3.5°C 81% 1.0 mph E1.6 kmh E 3.0 mph4.8 kmh 30.25 in1024.4 mb 0.00 in0.0 mm 0.00 in0.0 mm 0.00 in0.0 mm
01:30 AM 44.2°F6.8°C 38.7°F3.7°C 81% 1.0 mph E1.6 kmh E 3.0 mph4.8 kmh 30.24 in1024.0 mb 0.00 in0.0 mm 0.00 in0.0 mm 0.00 in0.0 mm
01:15 AM 44.6°F7.0°C 38.8°F3.8°C 80% 0.5 mph E0.8 kmh E 2.0 mph3.2 kmh 30.25 in1024.4 mb 0.00 in0.0 mm 0.00 in0.0 mm 0.00 in0.0 mm
01:00 AM 44.7°F7.1°C 38.9°F3.8°C 80% 1.0 mph E1.6 kmh E 2.0 mph3.2 kmh 30.25 in1024.4 mb 0.00 in0.0 mm 0.00 in0.0 mm 0.00 in0.0 mm
12:45 AM 44.0°F6.7°C 39.5°F4.2°C 84% 0.2 mph E0.3 kmh E 2.0 mph3.2 kmh 30.25 in1024.4 mb 0.00 in0.0 mm 0.00 in0.0 mm 0.00 in0.0 mm
12:30 AM 43.7°F6.5°C 39.5°F4.2°C 85% Calm Calm -- 30.26 in1024.7 mb 0.00 in0.0 mm 0.00 in0.0 mm 0.00 in0.0 mm
12:15 AM 43.5°F6.4°C 39.3°F4.1°C 85% Calm Calm 2.0 mph3.2 kmh 30.26 in1024.7 mb 0.00 in0.0 mm 0.00 in0.0 mm 0.00 in0.0 mm
12:00 AM 43.6°F6.4°C 39.4°F4.1°C 85% Calm Calm -- 30.26 in1024.7 mb 0.00 in0.0 mm 0.00 in0.0 mm 0.00 in0.0 mm